Time;durP1;ratioP1;P1;durP2;ratioP2;P2;SDS_P1;SDS_P2;PMS_P1;PMS_P2;Temp;Humidity;BMP_temperature;BMP_pressure;BME280_temperature;BME280_humidity;BME280_pressure;Samples;Min_cycle;Max_cycle;Signal;HPM_P1;HPM_P2
2021/01/26 00:01:51;;;;;;;13.63;4.37;;;;;;;;;;4393019;32;20177;-80
2021/01/26 00:04:16;;;;;;;15.53;3.80;;;;;;;;;;4393120;32;20189;-80
2021/01/26 00:06:44;;;;;;;21.70;4.27;;;;;;;;;;4407146;32;20141;-81
2021/01/26 00:09:10;;;;;;;7.57;3.30;;;;;;;;;;4407143;32;20225;-80
2021/01/26 00:11:35;;;;;;;9.53;3.10;;;;;;;;;;4394442;32;20212;-82
2021/01/26 00:14:09;;;;;;;9.27;2.70;;;;;;;;;;4393186;32;20235;-82
2021/01/26 00:16:34;;;;;;;10.57;2.97;;;;;;;;;;4407905;32;20134;-81
2021/01/26 00:19:00;;;;;;;7.73;2.73;;;;;;;;;;4406711;32;20225;-82
2021/01/26 00:21:25;;;;;;;12.03;2.40;;;;;;;;;;4407040;32;20195;-81
2021/01/26 00:23:50;;;;;;;11.87;2.73;;;;;;;;;;4406563;32;20566;-81
2021/01/26 00:26:18;;;;;;;16.40;3.00;;;;;;;;;;4393294;32;20225;-80
2021/01/26 00:28:43;;;;;;;17.70;3.10;;;;;;;;;;4392707;32;20158;-80
2021/01/26 00:31:09;;;;;;;14.50;3.23;;;;;;;;;;4406829;32;20186;-81
2021/01/26 00:33:34;;;;;;;19.00;3.53;;;;;;;;;;4392701;32;20507;-81
2021/01/26 00:35:59;;;;;;;15.07;3.10;;;;;;;;;;4406692;32;20134;-81
2021/01/26 00:38:24;;;;;;;23.07;4.00;;;;;;;;;;4393232;32;20286;-82
2021/01/26 00:40:49;;;;;;;17.53;3.67;;;;;;;;;;4408008;32;20641;-79
2021/01/26 00:43:15;;;;;;;15.13;3.50;;;;;;;;;;4393377;32;20173;-81
2021/01/26 00:45:40;;;;;;;19.50;4.20;;;;;;;;;;4406343;32;20218;-82
2021/01/26 00:48:06;;;;;;;14.43;4.13;;;;;;;;;;4392871;32;20184;-81
2021/01/26 00:50:37;;;;;;;15.57;4.20;;;;;;;;;;4406650;32;20146;-81
2021/01/26 00:53:02;;;;;;;16.83;3.30;;;;;;;;;;4406863;32;20130;-80
2021/01/26 00:55:39;;;;;;;21.53;3.83;;;;;;;;;;4392776;32;20213;-80
2021/01/26 00:58:07;;;;;;;15.17;3.47;;;;;;;;;;4406782;32;20240;-81
2021/01/26 01:00:34;;;;;;;11.37;2.07;;;;;;;;;;4392135;32;20201;-82
2021/01/26 01:02:59;;;;;;;20.93;3.00;;;;;;;;;;4406136;32;20169;-80
2021/01/26 01:05:25;;;;;;;17.10;3.07;;;;;;;;;;4405548;32;20151;-80
2021/01/26 01:07:50;;;;;;;15.30;3.20;;;;;;;;;;4392090;32;20632;-81
2021/01/26 01:10:23;;;;;;;18.83;3.50;;;;;;;;;;4392170;32;20173;-81
2021/01/26 01:12:51;;;;;;;8.60;2.27;;;;;;;;;;4406723;32;20156;-80
2021/01/26 01:15:18;;;;;;;11.67;2.40;;;;;;;;;;4391699;32;20185;-80
2021/01/26 01:17:43;;;;;;;7.23;1.80;;;;;;;;;;4405671;32;20182;-80
2021/01/26 01:20:09;;;;;;;8.43;1.60;;;;;;;;;;4392078;32;20221;-80
2021/01/26 01:22:35;;;;;;;4.63;1.00;;;;;;;;;;4405733;32;20160;-80
2021/01/26 01:25:00;;;;;;;3.77;0.97;;;;;;;;;;4392087;32;20170;-79
2021/01/26 01:27:28;;;;;;;4.27;1.07;;;;;;;;;;4391513;32;20499;-79
2021/01/26 01:29:56;;;;;;;7.87;1.63;;;;;;;;;;4405261;32;20141;-79
2021/01/26 01:32:22;;;;;;;8.37;1.90;;;;;;;;;;4392133;32;20185;-79
2021/01/26 01:34:52;;;;;;;10.83;1.93;;;;;;;;;;4405927;32;20139;-79
2021/01/26 01:37:29;;;;;;;7.87;2.27;;;;;;;;;;4392496;32;20246;-79
2021/01/26 01:39:54;;;;;;;13.00;2.60;;;;;;;;;;4392399;32;20176;-79
2021/01/26 01:42:20;;;;;;;11.97;2.30;;;;;;;;;;4391729;32;20166;-80
2021/01/26 01:44:54;;;;;;;14.40;2.23;;;;;;;;;;4405507;32;20134;-80
2021/01/26 01:47:38;;;;;;;12.37;2.63;;;;;;;;;;4406477;32;20137;-80
2021/01/26 01:50:04;;;;;;;12.93;2.60;;;;;;;;;;4392139;32;20231;-80
2021/01/26 01:52:47;;;;;;;8.97;2.37;;;;;;;;;;4391665;32;20180;-80
2021/01/26 01:55:25;;;;;;;10.77;2.20;;;;;;;;;;4391753;32;20303;-80
2021/01/26 01:57:59;;;;;;;14.13;2.30;;;;;;;;;;4405987;32;20203;-80
2021/01/26 02:00:33;;;;;;;8.70;1.80;;;;;;;;;;4391254;32;20150;-81
2021/01/26 02:03:07;;;;;;;10.70;2.27;;;;;;;;;;4405757;32;20140;-81
2021/01/26 02:05:35;;;;;;;12.80;2.63;;;;;;;;;;4391608;32;20158;-81
2021/01/26 02:08:00;;;;;;;13.77;2.80;;;;;;;;;;4390659;32;20220;-82
2021/01/26 02:10:25;;;;;;;19.63;2.37;;;;;;;;;;4391149;32;20174;-82
2021/01/26 02:12:54;;;;;;;12.00;2.10;;;;;;;;;;4391496;32;20259;-81
2021/01/26 02:15:28;;;;;;;11.17;2.17;;;;;;;;;;4405682;32;20134;-81
2021/01/26 02:18:07;;;;;;;18.83;2.27;;;;;;;;;;4391744;32;20189;-82
2021/01/26 02:20:41;;;;;;;12.47;2.47;;;;;;;;;;4391235;32;20158;-82
2021/01/26 02:23:18;;;;;;;10.33;2.13;;;;;;;;;;4391540;32;20529;-82
2021/01/26 02:26:09;;;;;;;11.60;1.93;;;;;;;;;;4391205;32;20185;-82
2021/01/26 02:28:43;;;;;;;9.47;2.03;;;;;;;;;;4405536;32;20142;-82
2021/01/26 02:31:27;;;;;;;15.00;2.40;;;;;;;;;;4405627;32;20130;-82
2021/01/26 02:33:53;;;;;;;6.00;1.40;;;;;;;;;;4404842;32;20180;-82
2021/01/26 02:36:43;;;;;;;8.30;1.60;;;;;;;;;;4391427;32;20506;-82
2021/01/26 02:39:28;;;;;;;3.97;1.10;;;;;;;;;;4390856;32;20221;-81
2021/01/26 02:42:12;;;;;;;7.57;1.50;;;;;;;;;;4391048;32;20201;-81
2021/01/26 02:44:58;;;;;;;5.30;1.10;;;;;;;;;;4391328;32;20193;-81
2021/01/26 02:47:33;;;;;;;11.77;1.70;;;;;;;;;;4390661;32;20161;-81
2021/01/26 02:50:17;;;;;;;11.30;1.70;;;;;;;;;;4391031;32;20233;-81
2021/01/26 02:52:45;;;;;;;5.37;1.53;;;;;;;;;;4391064;32;20196;-81
2021/01/26 02:55:26;;;;;;;16.77;2.00;;;;;;;;;;4404660;32;20160;-82
2021/01/26 02:58:00;;;;;;;13.93;2.30;;;;;;;;;;4391489;32;20162;-82
2021/01/26 03:00:28;;;;;;;17.17;2.77;;;;;;;;;;4391611;32;20161;-80
2021/01/26 03:03:12;;;;;;;;;;;;;;;;;;;;;
2021/01/26 03:05:44;;;;;;;14.77;2.83;;;;;;;;;;4405072;32;20146;-81
2021/01/26 03:08:20;;;;;;;12.60;1.90;;;;;;;;;;4404553;32;20201;-81
2021/01/26 03:11:08;;;;;;;14.03;2.10;;;;;;;;;;4405272;32;20195;-81
2021/01/26 03:13:36;;;;;;;9.53;1.93;;;;;;;;;;4383550;32;20161;-81
2021/01/26 03:16:13;;;;;;;9.93;1.77;;;;;;;;;;4394025;32;20165;-81
2021/01/26 03:18:46;;;;;;;12.07;1.50;;;;;;;;;;4394303;32;20191;-81
2021/01/26 03:21:13;;;;;;;12.07;1.93;;;;;;;;;;4393354;32;20185;-81
2021/01/26 03:23:42;;;;;;;10.97;2.00;;;;;;;;;;4407490;32;20138;-81
2021/01/26 03:26:12;;;;;;;12.37;1.70;;;;;;;;;;4393914;32;20158;-80
2021/01/26 03:28:51;;;;;;;9.07;1.90;;;;;;;;;;4393254;32;20213;-80
2021/01/26 03:31:18;;;;;;;5.07;1.50;;;;;;;;;;4391968;32;20162;-80
2021/01/26 03:33:48;;;;;;;3.77;0.80;;;;;;;;;;4407077;32;20160;-80
2021/01/26 03:36:16;;;;;;;8.70;1.27;;;;;;;;;;4407614;32;20189;-80
2021/01/26 03:38:42;;;;;;;11.70;1.77;;;;;;;;;;4393140;32;20238;-80
2021/01/26 03:41:07;;;;;;;5.13;1.10;;;;;;;;;;4393259;32;20501;-80
2021/01/26 03:43:33;;;;;;;7.07;1.40;;;;;;;;;;4408020;32;20230;-79
2021/01/26 03:46:16;;;;;;;7.50;1.10;;;;;;;;;;4393166;32;20170;-80
2021/01/26 03:48:58;;;;;;;7.37;1.40;;;;;;;;;;4393596;32;20166;-79
2021/01/26 03:52:01;;;;;;;6.17;1.67;;;;;;;;;;4393323;32;20213;-79
2021/01/26 03:54:34;;;;;;;8.40;1.60;;;;;;;;;;4375370;32;20188;-79
2021/01/26 03:57:18;;;;;;;3.97;1.20;;;;;;;;;;4393413;32;20226;-81
2021/01/26 04:00:05;;;;;;;8.73;1.50;;;;;;;;;;4407137;32;20181;-81
2021/01/26 04:02:55;;;;;;;12.50;2.07;;;;;;;;;;4393178;32;20158;-81
2021/01/26 04:06:02;;;;;;;7.13;1.50;;;;;;;;;;4406453;32;20149;-82
2021/01/26 04:08:37;;;;;;;7.27;1.43;;;;;;;;;;4392899;32;20162;-81
2021/01/26 04:11:06;;;;;;;12.70;1.53;;;;;;;;;;4393243;32;20237;-81
2021/01/26 04:13:45;;;;;;;9.97;1.50;;;;;;;;;;4406912;32;20154;-80
2021/01/26 04:16:12;;;;;;;16.17;1.93;;;;;;;;;;4393237;32;20211;-80
2021/01/26 04:18:40;;;;;;;11.00;1.67;;;;;;;;;;4393217;32;20576;-79
2021/01/26 04:21:07;;;;;;;17.10;2.13;;;;;;;;;;4392719;32;20506;-79
2021/01/26 04:23:36;;;;;;;10.37;1.83;;;;;;;;;;4392039;32;20162;-79
2021/01/26 04:26:03;;;;;;;13.27;1.53;;;;;;;;;;4393175;32;20579;-80
2021/01/26 04:28:36;;;;;;;8.80;1.27;;;;;;;;;;4406941;32;20191;-80
2021/01/26 04:31:02;;;;;;;8.70;0.97;;;;;;;;;;4392680;32;20256;-81
2021/01/26 04:33:27;;;;;;;7.40;1.20;;;;;;;;;;4392569;32;20170;-81
2021/01/26 04:35:53;;;;;;;6.73;1.30;;;;;;;;;;4406490;32;20210;-80
2021/01/26 04:38:18;;;;;;;5.60;1.30;;;;;;;;;;4407017;32;20138;-80
2021/01/26 04:40:43;;;;;;;7.50;1.23;;;;;;;;;;4407052;32;20161;-79
2021/01/26 04:43:18;;;;;;;10.70;1.40;;;;;;;;;;4406723;32;20528;-79
2021/01/26 04:45:43;;;;;;;10.33;1.97;;;;;;;;;;4407146;32;20179;-79
2021/01/26 04:48:11;;;;;;;12.93;1.73;;;;;;;;;;4406247;32;20126;-81
2021/01/26 04:50:43;;;;;;;9.63;1.60;;;;;;;;;;4392385;32;20276;-81
2021/01/26 04:53:23;;;;;;;9.83;1.90;;;;;;;;;;4406774;32;20201;-80
2021/01/26 04:55:53;;;;;;;13.87;1.70;;;;;;;;;;4406883;32;20182;-80
2021/01/26 04:58:37;;;;;;;10.63;1.90;;;;;;;;;;4406092;32;20582;-81
2021/01/26 05:01:13;;;;;;;17.10;2.40;;;;;;;;;;4392132;32;20526;-79
2021/01/26 05:03:38;;;;;;;7.10;1.80;;;;;;;;;;4392537;32;20165;-77
2021/01/26 05:06:04;;;;;;;10.43;1.60;;;;;;;;;;4391975;32;20226;-79
2021/01/26 05:08:35;;;;;;;13.60;2.20;;;;;;;;;;4405737;32;20141;-81
2021/01/26 05:11:05;;;;;;;8.67;1.20;;;;;;;;;;4392076;32;20170;-80
2021/01/26 05:13:36;;;;;;;8.10;1.20;;;;;;;;;;4391909;32;20227;-81
2021/01/26 05:16:18;;;;;;;11.27;1.37;;;;;;;;;;4392078;32;20158;-80
2021/01/26 05:18:58;;;;;;;14.47;1.30;;;;;;;;;;4391695;32;20196;-81
2021/01/26 05:21:32;;;;;;;7.53;1.00;;;;;;;;;;4406250;32;20170;-76
2021/01/26 05:24:07;;;;;;;8.57;1.40;;;;;;;;;;4406145;32;20173;-79
2021/01/26 05:26:32;;;;;;;11.33;1.17;;;;;;;;;;4406375;32;20141;-81
2021/01/26 05:28:57;;;;;;;8.87;1.20;;;;;;;;;;4391743;32;20223;-79
2021/01/26 05:31:28;;;;;;;10.93;1.67;;;;;;;;;;4391683;32;20201;-81
2021/01/26 05:33:57;;;;;;;9.83;1.60;;;;;;;;;;4391896;32;20228;-81
2021/01/26 05:36:22;;;;;;;10.17;1.73;;;;;;;;;;4392236;32;20169;-80
2021/01/26 05:38:52;;;;;;;11.83;1.60;;;;;;;;;;4391602;32;20208;-81
2021/01/26 05:41:18;;;;;;;9.97;1.50;;;;;;;;;;4391552;32;20557;-78
2021/01/26 05:43:44;;;;;;;11.13;2.10;;;;;;;;;;4406622;32;20652;-80
2021/01/26 05:46:29;;;;;;;20.87;2.50;;;;;;;;;;4405850;32;20169;-80
2021/01/26 05:48:57;;;;;;;13.80;2.07;;;;;;;;;;4406008;32;20520;-82
2021/01/26 05:51:24;;;;;;;13.37;3.17;;;;;;;;;;4391550;32;20186;-80
2021/01/26 05:53:51;;;;;;;21.30;3.00;;;;;;;;;;4405104;32;20237;-81
2021/01/26 05:56:16;;;;;;;15.13;2.70;;;;;;;;;;4405607;32;20565;-80
2021/01/26 05:58:43;;;;;;;11.13;1.93;;;;;;;;;;4405812;32;20134;-80
2021/01/26 06:01:13;;;;;;;12.50;1.90;;;;;;;;;;4405031;32;20157;-81
2021/01/26 06:03:38;;;;;;;12.00;1.63;;;;;;;;;;4391212;32;20208;-80
2021/01/26 06:06:16;;;;;;;8.73;1.00;;;;;;;;;;4391805;32;20157;-80
2021/01/26 06:08:55;;;;;;;2.77;1.10;;;;;;;;;;4405093;32;20163;-81
2021/01/26 06:11:31;;;;;;;3.43;0.83;;;;;;;;;;4405616;32;20138;-79
2021/01/26 06:14:21;;;;;;;8.80;1.27;;;;;;;;;;4391154;32;20199;-80
2021/01/26 06:17:02;;;;;;;6.33;1.10;;;;;;;;;;4391656;32;20170;-80
2021/01/26 06:19:27;;;;;;;9.27;1.13;;;;;;;;;;4391455;32;20219;-81
2021/01/26 06:21:52;;;;;;;5.93;0.90;;;;;;;;;;4391468;32;20556;-81
2021/01/26 06:24:19;;;;;;;4.27;0.90;;;;;;;;;;4390953;32;20204;-79
2021/01/26 06:26:58;;;;;;;3.17;0.70;;;;;;;;;;4390843;32;20166;-80
2021/01/26 06:29:36;;;;;;;4.80;1.07;;;;;;;;;;4391524;32;20222;-81
2021/01/26 06:32:04;;;;;;;3.87;0.50;;;;;;;;;;4405470;32;20246;-80
2021/01/26 06:35:04;;;;;;;3.00;0.70;;;;;;;;;;4390867;32;20185;-81
2021/01/26 06:37:36;;;;;;;5.43;0.90;;;;;;;;;;4328432;33;20156;-80
2021/01/26 06:40:13;;;;;;;6.47;1.10;;;;;;;;;;4378542;32;20165;-79
2021/01/26 06:42:53;;;;;;;6.63;0.90;;;;;;;;;;4380412;32;20193;-79
2021/01/26 06:45:27;;;;;;;5.27;0.77;;;;;;;;;;4390194;32;20127;-78
2021/01/26 06:48:30;;;;;;;5.40;1.07;;;;;;;;;;4376945;32;20165;-79
2021/01/26 06:51:09;;;;;;;5.73;0.70;;;;;;;;;;4394022;32;20165;-79
2021/01/26 06:53:53;;;;;;;9.50;1.33;;;;;;;;;;4408482;32;20131;-79
2021/01/26 06:56:21;;;;;;;4.90;1.00;;;;;;;;;;4393860;32;20166;-79
2021/01/26 06:58:58;;;;;;;9.47;1.63;;;;;;;;;;4393699;32;20209;-79
2021/01/26 07:01:38;;;;;;;8.30;1.50;;;;;;;;;;4392218;32;20204;-79
2021/01/26 07:04:07;;;;;;;8.90;1.37;;;;;;;;;;4402101;32;20232;-77
2021/01/26 07:06:51;;;;;;;10.23;1.80;;;;;;;;;;4396484;32;20523;-80
2021/01/26 07:09:35;;;;;;;7.87;1.40;;;;;;;;;;4396131;32;20233;-79
2021/01/26 07:12:09;;;;;;;9.10;1.53;;;;;;;;;;4402395;32;20165;-78
2021/01/26 07:15:13;;;;;;;5.57;1.20;;;;;;;;;;4393389;32;20211;-79
2021/01/26 07:17:57;;;;;;;9.43;1.93;;;;;;;;;;4353232;32;20599;-79
2021/01/26 07:20:41;;;;;;;8.10;1.40;;;;;;;;;;4394132;32;20587;-78
2021/01/26 07:23:27;;;;;;;6.60;1.07;;;;;;;;;;4393355;32;20602;-79
2021/01/26 07:26:11;;;;;;;9.90;1.40;;;;;;;;;;4393060;32;20450;-79
2021/01/26 07:28:42;;;;;;;4.00;1.20;;;;;;;;;;4393075;32;20162;-80
2021/01/26 07:31:11;;;;;;;9.70;1.30;;;;;;;;;;4390485;32;20192;-79
2021/01/26 07:33:42;;;;;;;4.50;1.93;;;;;;;;;;4391097;32;20189;-80
2021/01/26 07:36:29;;;;;;;8.30;1.53;;;;;;;;;;4393423;32;20162;-81
2021/01/26 07:39:05;;;;;;;4.83;1.17;;;;;;;;;;4405702;32;20215;-79
2021/01/26 07:41:45;;;;;;;7.73;1.50;;;;;;;;;;4393920;32;20280;-80
2021/01/26 07:44:29;;;;;;;7.40;1.43;;;;;;;;;;4392468;32;20215;-79
2021/01/26 07:46:57;;;;;;;5.63;1.20;;;;;;;;;;4407228;32;20161;-79
2021/01/26 07:49:33;;;;;;;11.10;1.60;;;;;;;;;;4411292;32;20238;-79
2021/01/26 07:52:04;;;;;;;7.70;1.77;;;;;;;;;;4418229;32;20171;-80
2021/01/26 07:54:42;;;;;;;6.23;1.27;;;;;;;;;;4392760;32;20192;-81
2021/01/26 07:57:23;;;;;;;13.60;1.60;;;;;;;;;;4404768;32;20188;-80
2021/01/26 07:59:51;;;;;;;8.63;1.33;;;;;;;;;;4392143;32;20189;-79
2021/01/26 08:02:35;;;;;;;13.03;1.50;;;;;;;;;;4394691;32;20162;-79
2021/01/26 08:05:07;;;;;;;14.90;2.20;;;;;;;;;;4407824;32;20175;-77
2021/01/26 08:07:33;;;;;;;13.47;1.50;;;;;;;;;;4405490;32;20158;-80
2021/01/26 08:10:00;;;;;;;11.67;1.80;;;;;;;;;;4377161;32;20243;-80
2021/01/26 08:12:52;;;;;;;12.00;1.50;;;;;;;;;;4407675;32;20146;-80
2021/01/26 08:15:23;;;;;;;11.63;1.40;;;;;;;;;;4414587;32;20164;-80
2021/01/26 08:17:49;;;;;;;8.33;1.40;;;;;;;;;;4392679;32;20180;-81
2021/01/26 08:20:14;;;;;;;9.73;1.30;;;;;;;;;;4392503;32;20158;-79
2021/01/26 08:23:00;;;;;;;8.87;1.37;;;;;;;;;;4392464;32;20157;-79
2021/01/26 08:25:30;;;;;;;9.47;1.80;;;;;;;;;;4391092;32;20162;-79
2021/01/26 08:28:02;;;;;;;7.80;1.50;;;;;;;;;;4394337;32;20180;-80
2021/01/26 08:31:19;;;;;;;;;;;;;;;;;;;;;
2021/01/26 08:34:03;;;;;;;7.73;1.60;;;;;;;;;;4421801;32;20137;-79
2021/01/26 08:36:39;;;;;;;6.63;1.03;;;;;;;;;;4408061;32;20180;-80
2021/01/26 08:39:52;;;;;;;;;;;;;;;;;;;;;
2021/01/26 08:42:59;;;;;;;9.00;1.47;;;;;;;;;;4421527;32;20598;-80
2021/01/26 08:45:31;;;;;;;9.47;1.63;;;;;;;;;;4346444;33;20253;-79
2021/01/26 08:47:56;;;;;;;7.93;1.50;;;;;;;;;;4346320;33;20163;-80
2021/01/26 08:51:03;;;;;;;4.97;1.77;;;;;;;;;;4377702;32;20184;-79
2021/01/26 08:53:29;;;;;;;8.97;1.70;;;;;;;;;;4420983;32;20295;-80
2021/01/26 08:55:58;;;;;;;15.37;1.57;;;;;;;;;;4407033;32;20162;-80
2021/01/26 08:58:39;;;;;;;5.93;1.40;;;;;;;;;;4395017;32;20299;-80
2021/01/26 09:01:25;;;;;;;7.87;1.43;;;;;;;;;;4396395;32;20161;-81
2021/01/26 09:03:51;;;;;;;6.13;1.50;;;;;;;;;;4379050;32;20162;-80
2021/01/26 09:06:35;;;;;;;9.83;2.53;;;;;;;;;;4391167;32;20153;-80
2021/01/26 09:09:01;;;;;;;7.57;1.90;;;;;;;;;;4385818;32;20262;-78
2021/01/26 09:11:28;;;;;;;15.53;2.53;;;;;;;;;;4385202;32;20159;-77
2021/01/26 09:14:02;;;;;;;9.87;1.70;;;;;;;;;;4389218;32;20201;-81
2021/01/26 09:16:35;;;;;;;10.47;2.20;;;;;;;;;;4400636;32;20153;-80
2021/01/26 09:19:12;;;;;;;12.70;3.03;;;;;;;;;;4403702;32;20172;-80
2021/01/26 09:21:38;;;;;;;7.57;2.57;;;;;;;;;;4412303;32;20138;-80
2021/01/26 09:24:07;;;;;;;12.20;2.83;;;;;;;;;;4395320;32;20197;-79
2021/01/26 09:26:32;;;;;;;11.97;2.50;;;;;;;;;;4405243;32;20169;-79
2021/01/26 09:28:58;;;;;;;10.07;2.60;;;;;;;;;;4390662;32;20158;-79
2021/01/26 09:31:28;;;;;;;15.90;2.63;;;;;;;;;;4393828;32;20219;-79
2021/01/26 09:34:07;;;;;;;15.43;2.47;;;;;;;;;;4406498;32;20322;-78
2021/01/26 09:36:34;;;;;;;7.37;1.77;;;;;;;;;;4420630;32;20173;-78
2021/01/26 09:39:05;;;;;;;6.43;1.53;;;;;;;;;;4404224;32;20461;-79
2021/01/26 09:41:48;;;;;;;6.47;1.30;;;;;;;;;;4388333;32;20159;-78
2021/01/26 09:44:18;;;;;;;5.53;1.00;;;;;;;;;;4401124;32;20200;-78
2021/01/26 09:46:46;;;;;;;2.37;0.53;;;;;;;;;;4406869;32;20224;-78
2021/01/26 09:49:20;;;;;;;2.97;0.80;;;;;;;;;;4405276;32;20169;-78
2021/01/26 09:51:51;;;;;;;5.50;0.97;;;;;;;;;;4419181;32;20148;-78
2021/01/26 09:54:22;;;;;;;5.17;1.13;;;;;;;;;;4395288;32;20217;-78
2021/01/26 09:56:48;;;;;;;3.97;0.77;;;;;;;;;;4395132;32;20158;-78
2021/01/26 09:59:14;;;;;;;4.23;0.87;;;;;;;;;;4390072;32;20254;-79
2021/01/26 10:01:49;;;;;;;7.13;1.20;;;;;;;;;;4400806;32;20186;-78
2021/01/26 10:04:34;;;;;;;4.30;1.07;;;;;;;;;;4405484;32;20165;-78
2021/01/26 10:07:09;;;;;;;2.30;0.93;;;;;;;;;;4405644;32;20165;-79
2021/01/26 10:09:42;;;;;;;6.40;0.90;;;;;;;;;;4390442;32;20313;-79
2021/01/26 10:12:45;;;;;;;2.00;1.00;;;;;;;;;;4390632;32;20178;-79
2021/01/26 10:15:18;;;;;;;4.07;0.80;;;;;;;;;;4389463;32;20184;-78
2021/01/26 10:17:55;;;;;;;3.97;0.80;;;;;;;;;;4391177;32;20201;-78
2021/01/26 10:20:25;;;;;;;3.57;1.37;;;;;;;;;;4405607;32;20137;-77
2021/01/26 10:23:03;;;;;;;2.93;0.80;;;;;;;;;;4390509;32;20272;-78
2021/01/26 10:25:29;;;;;;;3.90;0.87;;;;;;;;;;4391214;32;20169;-76
2021/01/26 10:28:20;;;;;;;3.87;0.67;;;;;;;;;;4413431;32;20205;-78
2021/01/26 10:30:48;;;;;;;2.53;0.80;;;;;;;;;;4404285;32;20169;-78
2021/01/26 10:33:38;;;;;;;4.10;0.80;;;;;;;;;;4391039;32;20259;-79
2021/01/26 10:36:33;;;;;;;4.20;1.33;;;;;;;;;;4391240;32;20197;-78
2021/01/26 10:39:07;;;;;;;2.50;1.00;;;;;;;;;;4390797;32;20157;-78
2021/01/26 10:44:36;;;;;;;2.63;0.80;;;;;;;;;;4396451;32;20233;-79
2021/01/26 10:47:22;;;;;;;4.37;1.00;;;;;;;;;;4390424;32;20154;-79
2021/01/26 10:49:58;;;;;;;3.53;0.90;;;;;;;;;;4391318;32;20162;-79
2021/01/26 10:52:42;;;;;;;5.07;1.10;;;;;;;;;;4390995;32;20208;-78
2021/01/26 10:55:09;;;;;;;8.60;1.30;;;;;;;;;;4390620;32;20170;-78
2021/01/26 10:57:44;;;;;;;4.03;1.37;;;;;;;;;;4390646;32;20604;-79
2021/01/26 11:00:10;;;;;;;3.80;1.17;;;;;;;;;;4379053;32;20198;-79
2021/01/26 11:02:36;;;;;;;4.70;1.27;;;;;;;;;;4400955;32;20210;-79
2021/01/26 11:05:05;;;;;;;6.70;1.10;;;;;;;;;;4405715;32;20166;-78
2021/01/26 11:07:37;;;;;;;5.03;1.00;;;;;;;;;;4405620;32;20162;-79
2021/01/26 11:10:13;;;;;;;3.97;1.00;;;;;;;;;;4401799;32;20204;-79
2021/01/26 11:12:47;;;;;;;4.10;1.23;;;;;;;;;;4390821;32;20162;-79
2021/01/26 11:15:21;;;;;;;2.13;0.93;;;;;;;;;;4391050;32;20188;-80
2021/01/26 11:18:03;;;;;;;4.73;1.27;;;;;;;;;;4390211;32;20204;-79
2021/01/26 11:20:39;;;;;;;4.10;1.10;;;;;;;;;;4388655;32;20228;-79
2021/01/26 11:23:14;;;;;;;3.70;0.90;;;;;;;;;;4390250;32;20212;-79
2021/01/26 11:25:47;;;;;;;6.23;1.20;;;;;;;;;;4390524;32;20186;-79
2021/01/26 11:28:15;;;;;;;3.27;1.23;;;;;;;;;;4390717;32;20595;-78
2021/01/26 11:30:44;;;;;;;4.77;1.13;;;;;;;;;;4389979;32;20216;-80
2021/01/26 11:33:10;;;;;;;6.50;1.40;;;;;;;;;;4391209;32;20215;-80
2021/01/26 11:35:35;;;;;;;6.80;1.70;;;;;;;;;;4393096;32;20193;-80
2021/01/26 11:38:00;;;;;;;5.30;1.33;;;;;;;;;;4393458;32;20189;-79
2021/01/26 11:40:26;;;;;;;7.23;1.50;;;;;;;;;;4406392;32;20138;-78
2021/01/26 11:43:02;;;;;;;8.50;1.53;;;;;;;;;;4392972;32;20173;-80
2021/01/26 11:45:31;;;;;;;8.63;1.90;;;;;;;;;;4393014;32;20162;-80
2021/01/26 11:48:09;;;;;;;6.82;1.80;;;;;;;;;;4389147;32;20174;-79
2021/01/26 11:50:47;;;;;;;7.50;2.10;;;;;;;;;;4378305;32;20211;-79
2021/01/26 11:53:24;;;;;;;5.53;1.63;;;;;;;;;;4378388;32;20505;-80
2021/01/26 11:55:49;;;;;;;8.87;2.47;;;;;;;;;;4386390;32;20215;-79
2021/01/26 11:58:18;;;;;;;9.63;2.10;;;;;;;;;;4422100;32;20157;-80
2021/01/26 12:00:48;;;;;;;9.53;2.33;;;;;;;;;;4408302;32;20157;-80
2021/01/26 12:03:19;;;;;;;7.50;2.25;;;;;;;;;;4407254;32;20193;-81
2021/01/26 12:05:55;;;;;;;7.65;2.10;;;;;;;;;;4407727;32;20173;-81
2021/01/26 12:08:20;;;;;;;11.20;2.43;;;;;;;;;;4407848;32;20161;-77
2021/01/26 12:10:46;;;;;;;10.63;1.90;;;;;;;;;;4421763;32;20243;-79
2021/01/26 12:13:18;;;;;;;8.02;2.15;;;;;;;;;;4407310;32;20617;-79
2021/01/26 12:15:43;;;;;;;10.87;2.60;;;;;;;;;;4408230;32;20197;-80
2021/01/26 12:18:09;;;;;;;9.05;2.08;;;;;;;;;;4408355;32;20161;-80
2021/01/26 12:20:37;;;;;;;8.63;2.17;;;;;;;;;;4407745;32;20587;-80
2021/01/26 12:23:03;;;;;;;4.97;1.67;;;;;;;;;;4406937;32;20196;-77
2021/01/26 12:25:30;;;;;;;5.07;1.77;;;;;;;;;;4406747;32;20529;-79
2021/01/26 12:27:58;;;;;;;12.90;2.15;;;;;;;;;;4406475;32;20541;-79
2021/01/26 12:30:32;;;;;;;7.22;1.73;;;;;;;;;;4407564;32;20223;-79
2021/01/26 12:33:27;;;;;;;7.32;1.87;;;;;;;;;;4406593;32;20249;-80
2021/01/26 12:35:52;;;;;;;8.18;1.77;;;;;;;;;;4400701;32;20184;-80
2021/01/26 12:38:17;;;;;;;6.47;1.75;;;;;;;;;;4421817;32;20216;-81
2021/01/26 12:40:46;;;;;;;6.78;1.80;;;;;;;;;;4407032;32;20218;-80
2021/01/26 12:43:20;;;;;;;6.55;1.85;;;;;;;;;;4420702;32;20225;-80
2021/01/26 12:45:45;;;;;;;5.80;1.65;;;;;;;;;;4405322;32;20154;-80
2021/01/26 12:48:14;;;;;;;8.88;2.12;;;;;;;;;;4407530;32;20545;-80
2021/01/26 12:50:51;;;;;;;;;;;;;;;;;;;;;
2021/01/26 12:53:17;;;;;;;4.55;1.25;;;;;;;;;;4421449;32;20137;-80
2021/01/26 12:56:08;;;;;;;4.82;1.30;;;;;;;;;;4407140;32;20154;-81
2021/01/26 12:58:33;;;;;;;7.03;1.62;;;;;;;;;;4371145;32;20207;-80
2021/01/26 13:01:06;;;;;;;5.65;1.30;;;;;;;;;;4414769;32;20472;-81
2021/01/26 13:03:32;;;;;;;7.68;1.98;;;;;;;;;;4407143;32;20469;-80
2021/01/26 13:06:00;;;;;;;5.93;1.52;;;;;;;;;;4406245;32;20181;-80
2021/01/26 13:08:31;;;;;;;8.73;1.62;;;;;;;;;;4407363;32;20185;-80
2021/01/26 13:13:46;;;;;;;7.37;1.58;;;;;;;;;;4420774;32;20160;-78
2021/01/26 13:16:12;;;;;;;5.80;1.65;;;;;;;;;;4421159;32;20133;-76
2021/01/26 13:18:37;;;;;;;8.48;1.60;;;;;;;;;;4397632;32;20223;-75
2021/01/26 13:21:03;;;;;;;5.95;1.50;;;;;;;;;;4415837;32;20188;-77
2021/01/26 13:23:28;;;;;;;6.43;1.52;;;;;;;;;;4405368;32;20149;-77
2021/01/26 13:25:54;;;;;;;6.32;1.42;;;;;;;;;;4417957;32;20590;-76
2021/01/26 13:28:19;;;;;;;4.10;1.20;;;;;;;;;;4406406;32;20268;-76
2021/01/26 13:30:44;;;;;;;10.30;1.77;;;;;;;;;;4407147;32;20165;-75
2021/01/26 13:33:10;;;;;;;6.35;1.45;;;;;;;;;;4420051;32;20223;-76
2021/01/26 13:35:35;;;;;;;3.97;1.25;;;;;;;;;;4420488;32;20543;-76
2021/01/26 13:38:04;;;;;;;5.65;1.45;;;;;;;;;;4420387;32;20150;-75
2021/01/26 13:40:32;;;;;;;6.15;1.25;;;;;;;;;;4419951;32;20137;-76
2021/01/26 13:42:58;;;;;;;5.70;1.35;;;;;;;;;;4421113;32;20168;-76
2021/01/26 13:45:28;;;;;;;2.72;1.25;;;;;;;;;;4406729;32;20212;-77
2021/01/26 13:48:03;;;;;;;7.28;1.73;;;;;;;;;;4420602;32;20654;-76
2021/01/26 13:50:30;;;;;;;5.35;1.27;;;;;;;;;;4420171;32;20436;-75
2021/01/26 13:52:56;;;;;;;4.20;1.20;;;;;;;;;;4420067;32;20157;-75
2021/01/26 13:55:25;;;;;;;3.33;1.23;;;;;;;;;;4419974;32;20201;-76
2021/01/26 13:57:50;;;;;;;5.22;1.10;;;;;;;;;;4419726;32;20176;-76
2021/01/26 14:00:28;;;;;;;5.85;1.60;;;;;;;;;;4418196;32;20133;-77
2021/01/26 14:02:57;;;;;;;9.80;1.55;;;;;;;;;;4405053;32;20232;-76
2021/01/26 14:05:22;;;;;;;6.57;1.40;;;;;;;;;;4405066;32;20134;-76
2021/01/26 14:07:48;;;;;;;3.70;1.30;;;;;;;;;;4405132;32;20164;-76
2021/01/26 14:10:16;;;;;;;4.78;1.20;;;;;;;;;;4404427;32;20234;-76
2021/01/26 14:12:50;;;;;;;2.35;1.17;;;;;;;;;;4405126;32;20164;-77
2021/01/26 14:15:15;;;;;;;5.95;1.50;;;;;;;;;;4404755;32;20576;-76
2021/01/26 14:17:41;;;;;;;4.95;1.77;;;;;;;;;;4390170;32;20158;-76
2021/01/26 14:20:07;;;;;;;7.78;1.30;;;;;;;;;;4404338;32;20152;-76
2021/01/26 14:22:32;;;;;;;5.40;1.23;;;;;;;;;;4390159;32;20154;-76
2021/01/26 14:24:58;;;;;;;8.55;1.45;;;;;;;;;;4391091;32;20157;-76
2021/01/26 14:27:23;;;;;;;4.68;1.23;;;;;;;;;;4404950;32;20513;-76
2021/01/26 14:29:49;;;;;;;6.57;1.20;;;;;;;;;;4401817;32;20169;-76
2021/01/26 14:32:15;;;;;;;4.12;1.30;;;;;;;;;;4419566;32;20141;-76
2021/01/26 14:34:40;;;;;;;5.57;1.15;;;;;;;;;;4419555;32;20207;-76
2021/01/26 14:37:05;;;;;;;4.20;1.30;;;;;;;;;;4406169;32;20267;-76
2021/01/26 14:39:34;;;;;;;4.93;1.35;;;;;;;;;;4419975;32;20133;-77
2021/01/26 14:42:01;;;;;;;3.78;1.00;;;;;;;;;;4419531;32;20137;-76
2021/01/26 14:44:29;;;;;;;10.40;1.37;;;;;;;;;;4420247;32;20567;-77
2021/01/26 14:46:54;;;;;;;3.62;0.80;;;;;;;;;;4419927;32;20141;-76
2021/01/26 14:49:20;;;;;;;4.25;1.00;;;;;;;;;;4419464;32;20129;-76
2021/01/26 14:51:45;;;;;;;6.45;1.20;;;;;;;;;;4415300;32;20463;-76
2021/01/26 14:54:11;;;;;;;4.68;1.23;;;;;;;;;;4375477;32;20216;-75
2021/01/26 14:56:36;;;;;;;4.90;0.80;;;;;;;;;;4389487;32;20570;-77
2021/01/26 14:59:20;;;;;;;3.50;1.30;;;;;;;;;;4389304;32;20147;-77
2021/01/26 15:01:46;;;;;;;3.77;1.10;;;;;;;;;;4380531;32;20284;-76
2021/01/26 15:04:33;;;;;;;;;;;;;;;;;;;;;
2021/01/26 15:07:08;;;;;;;6.20;1.10;;;;;;;;;;4407938;32;20192;-74
2021/01/26 15:09:33;;;;;;;8.73;1.30;;;;;;;;;;4396845;32;20205;-76
2021/01/26 15:11:59;;;;;;;6.07;1.43;;;;;;;;;;4410249;32;20184;-73
2021/01/26 15:14:26;;;;;;;5.07;1.20;;;;;;;;;;4406504;32;20581;-76
2021/01/26 15:16:51;;;;;;;6.13;1.40;;;;;;;;;;4382688;32;20308;-75
2021/01/26 15:19:17;;;;;;;3.77;1.20;;;;;;;;;;4396506;32;20426;-78
2021/01/26 15:21:42;;;;;;;2.87;1.17;;;;;;;;;;4408565;32;20158;-76